Terminal Aerodrome Forecast
Issued by NWS Sioux Falls, SD

Home | Current Version | Previous Version | Graphics & Text | Print | Product List | Glossary On
Versions: 1 2 3 4 5 6 7 8 9 10 11 12 13 14
000
FTUS43 KFSD 172300
TAFFSD
TAF
KFSD 172331Z 1800/1824 VRB04KT P6SM BKN100
     FM180900 20004KT P6SM -TSRA BKN060CB
     FM181100 29008KT P6SM SCT060=

USA.gov is the U.S. government's official web portal to all federal, state and local government web resources and services.